Time;durP1;ratioP1;P1;durP2;ratioP2;P2;SDS_P1;SDS_P2;PMS_P1;PMS_P2;Temp;Humidity;BMP_temperature;BMP_pressure;BME280_temperature;BME280_humidity;BME280_pressure;Samples;Min_cycle;Max_cycle;Signal;HPM_P1;HPM_P2
2022/10/22 00:00:52;;;;;;;3.73;2.40;;;12.50;99.90;;;;;;6246945;22;20233;-44
2022/10/22 00:03:18;;;;;;;6.53;2.33;;;12.40;99.90;;;;;;6246351;22;20155;-47
2022/10/22 00:05:44;;;;;;;7.20;2.83;;;12.50;99.90;;;;;;6246636;22;20152;-45
2022/10/22 00:08:09;;;;;;;7.50;2.10;;;12.50;99.90;;;;;;6244911;23;20522;-45
2022/10/22 00:10:37;;;;;;;5.07;2.00;;;12.50;99.90;;;;;;6244890;23;20147;-44
2022/10/22 00:13:03;;;;;;;6.03;2.77;;;12.40;99.90;;;;;;6246736;22;20175;-44
2022/10/22 00:15:28;;;;;;;3.97;2.03;;;12.40;99.90;;;;;;6246244;22;20148;-46
2022/10/22 00:17:54;;;;;;;6.43;2.63;;;12.40;99.90;;;;;;6246134;22;20175;-45
2022/10/22 00:20:20;;;;;;;12.30;2.20;;;12.40;99.90;;;;;;6246287;22;20186;-44
2022/10/22 00:22:45;;;;;;;9.20;2.30;;;12.30;99.90;;;;;;6246280;22;20649;-45
2022/10/22 00:25:11;;;;;;;7.27;2.67;;;12.40;99.90;;;;;;6246664;22;20155;-46
2022/10/22 00:27:37;;;;;;;4.23;2.13;;;12.30;99.90;;;;;;6246074;22;20521;-46
2022/10/22 00:30:02;;;;;;;4.90;2.17;;;12.30;99.90;;;;;;6246342;22;20167;-45
2022/10/22 00:32:28;;;;;;;4.43;2.23;;;12.30;99.90;;;;;;6246416;23;20163;-42
2022/10/22 00:34:53;;;;;;;4.33;2.37;;;12.30;99.90;;;;;;6246216;22;20160;-44
2022/10/22 00:37:19;;;;;;;2.73;2.40;;;12.30;99.90;;;;;;6246264;22;20250;-45
2022/10/22 00:39:45;;;;;;;4.03;2.10;;;12.20;99.90;;;;;;6246018;22;20156;-44
2022/10/22 00:42:20;;;;;;;6.37;2.27;;;12.20;99.90;;;;;;6245986;22;20185;-42
2022/10/22 00:45:03;;;;;;;9.13;2.63;;;12.20;99.90;;;;;;6246355;22;20159;-43
2022/10/22 00:48:01;;;;;;;6.77;2.60;;;12.20;99.90;;;;;;6246055;22;20516;-44
2022/10/22 00:50:34;;;;;;;7.47;2.77;;;12.20;99.90;;;;;;6235943;23;20513;-45
2022/10/22 00:53:02;;;;;;;6.67;2.63;;;12.20;99.90;;;;;;6246445;22;20139;-43
2022/10/22 00:55:29;;;;;;;7.10;2.40;;;12.20;99.90;;;;;;6246370;22;20158;-43
2022/10/22 00:57:56;;;;;;;7.47;2.93;;;12.20;99.90;;;;;;6245923;22;20211;-45
2022/10/22 01:00:22;;;;;;;5.53;2.40;;;12.20;99.90;;;;;;6244437;23;20159;-46
2022/10/22 01:02:50;;;;;;;5.53;2.80;;;12.20;99.90;;;;;;6246293;22;20261;-44
2022/10/22 01:05:16;;;;;;;4.77;2.67;;;12.20;99.90;;;;;;6246029;22;20151;-44
2022/10/22 01:07:45;;;;;;;4.23;2.40;;;12.20;99.90;;;;;;6246181;22;20187;-43
2022/10/22 01:10:26;;;;;;;7.87;3.20;;;12.20;99.90;;;;;;6245885;22;20183;-45
2022/10/22 01:13:16;;;;;;;6.50;3.30;;;12.20;99.90;;;;;;6246381;23;20162;-46
2022/10/22 01:15:54;;;;;;;6.67;3.17;;;12.20;99.90;;;;;;6248252;22;20140;-47
2022/10/22 01:18:59;;;;;;;11.53;3.10;;;12.30;99.90;;;;;;6247898;22;20175;-46
2022/10/22 01:21:35;;;;;;;6.13;2.90;;;12.30;99.90;;;;;;6231765;23;20498;-43
2022/10/22 01:24:15;;;;;;;6.47;3.10;;;12.30;99.90;;;;;;6248612;22;20290;-45
2022/10/22 01:27:06;;;;;;;8.00;2.77;;;12.40;99.90;;;;;;6248588;22;20154;-44
2022/10/22 01:29:47;;;;;;;6.83;3.50;;;12.40;99.90;;;;;;6249170;22;20606;-44
2022/10/22 01:32:20;;;;;;;6.77;3.17;;;12.40;99.90;;;;;;6249094;23;20487;-43
2022/10/22 01:34:52;;;;;;;6.40;3.40;;;12.50;99.90;;;;;;6249014;23;20573;-43
2022/10/22 01:37:22;;;;;;;5.97;3.03;;;12.50;99.90;;;;;;6249025;22;20183;-44
2022/10/22 01:39:49;;;;;;;5.60;2.97;;;12.50;99.90;;;;;;6248128;22;20494;-45
2022/10/22 01:42:15;;;;;;;8.70;3.40;;;12.50;99.90;;;;;;6248094;22;20209;-45
2022/10/22 01:44:41;;;;;;;6.40;3.57;;;12.50;99.90;;;;;;6248157;22;20530;-43
2022/10/22 01:47:29;;;;;;;5.33;3.13;;;12.50;99.90;;;;;;6247915;22;20188;-48
2022/10/22 01:50:10;;;;;;;7.17;3.13;;;12.50;99.90;;;;;;6248692;22;20223;-43
2022/10/22 01:52:52;;;;;;;9.80;3.50;;;12.50;99.90;;;;;;6246423;23;20151;-44
2022/10/22 01:55:40;;;;;;;8.37;3.30;;;12.50;99.90;;;;;;6248210;22;20143;-46
2022/10/22 01:58:40;;;;;;;5.00;3.00;;;12.40;99.90;;;;;;6248331;22;20233;-46
2022/10/22 02:01:29;;;;;;;4.80;3.30;;;12.30;99.90;;;;;;6248894;22;20159;-43
2022/10/22 02:04:33;;;;;;;3.27;2.53;;;12.30;99.90;;;;;;6248163;22;20614;-45
2022/10/22 02:07:03;;;;;;;4.43;2.53;;;12.20;99.90;;;;;;6247016;23;20179;-45
2022/10/22 02:09:31;;;;;;;6.10;2.70;;;12.10;99.90;;;;;;6247665;22;20158;-44
2022/10/22 02:12:00;;;;;;;4.43;2.73;;;12.00;99.90;;;;;;6247591;22;20187;-45
2022/10/22 02:14:28;;;;;;;7.90;2.60;;;12.00;99.90;;;;;;6247617;22;20613;-43
2022/10/22 02:16:57;;;;;;;6.17;3.20;;;11.90;99.90;;;;;;6247868;22;20182;-46
2022/10/22 02:19:34;;;;;;;8.47;3.30;;;11.90;99.90;;;;;;6247518;22;20163;-46
2022/10/22 02:22:00;;;;;;;7.07;3.20;;;11.80;99.90;;;;;;6247848;22;20148;-47
2022/10/22 02:24:26;;;;;;;5.17;2.53;;;11.80;99.90;;;;;;6247951;22;20151;-47
2022/10/22 02:27:06;;;;;;;5.50;3.43;;;11.90;99.90;;;;;;6247561;22;20155;-47
2022/10/22 02:29:44;;;;;;;8.20;3.20;;;11.80;99.90;;;;;;6245716;23;20175;-43
2022/10/22 02:32:14;;;;;;;6.33;2.70;;;11.70;99.90;;;;;;6247912;22;20197;-43
2022/10/22 02:34:40;;;;;;;4.70;2.80;;;11.70;99.90;;;;;;6247284;22;20505;-47
2022/10/22 02:37:08;;;;;;;3.97;2.40;;;11.70;99.90;;;;;;6247123;22;20186;-47
2022/10/22 02:39:35;;;;;;;3.50;2.83;;;11.60;99.90;;;;;;6245585;23;20160;-45
2022/10/22 02:42:01;;;;;;;8.07;3.07;;;11.60;99.90;;;;;;6247608;22;20166;-46
2022/10/22 02:44:27;;;;;;;5.57;2.60;;;11.50;99.90;;;;;;6247267;22;20222;-43
2022/10/22 02:46:53;;;;;;;7.10;3.10;;;11.50;99.90;;;;;;6245306;23;20171;-43
2022/10/22 02:49:18;;;;;;;10.13;3.00;;;11.40;99.90;;;;;;6245775;23;20152;-43
2022/10/22 02:51:44;;;;;;;7.57;2.80;;;11.40;99.90;;;;;;6247140;22;20148;-41
2022/10/22 02:54:09;;;;;;;6.20;2.73;;;11.40;99.90;;;;;;6247414;22;20648;-39
2022/10/22 02:56:35;;;;;;;5.57;2.80;;;11.50;99.90;;;;;;6247416;22;20227;-43
2022/10/22 02:59:01;;;;;;;4.87;2.93;;;11.40;99.90;;;;;;6245495;23;20242;-39
2022/10/22 03:01:26;;;;;;;5.37;2.97;;;11.40;99.90;;;;;;6247391;22;20169;-39
2022/10/22 03:03:52;;;;;;;6.60;3.10;;;11.40;99.90;;;;;;6247366;22;20159;-41
2022/10/22 03:06:17;;;;;;;4.43;3.30;;;11.30;99.90;;;;;;6245329;23;20243;-40
2022/10/22 03:08:43;;;;;;;4.30;2.93;;;11.30;99.90;;;;;;6246866;22;20306;-41
2022/10/22 03:11:09;;;;;;;7.17;3.57;;;11.30;99.90;;;;;;6247060;22;20521;-42
2022/10/22 03:13:34;;;;;;;10.30;3.50;;;11.40;99.90;;;;;;6247170;22;20155;-42
2022/10/22 03:16:00;;;;;;;8.07;3.30;;;11.50;99.90;;;;;;6246843;22;20488;-40
2022/10/22 03:18:26;;;;;;;6.70;3.67;;;11.40;99.90;;;;;;6247066;22;20183;-41
2022/10/22 03:21:06;;;;;;;5.63;3.40;;;11.50;99.90;;;;;;6247119;22;20482;-39
2022/10/22 03:23:32;;;;;;;7.07;3.00;;;11.40;99.90;;;;;;6245444;23;20212;-41
2022/10/22 03:25:58;;;;;;;9.67;3.27;;;11.40;99.90;;;;;;6247019;22;20195;-44
2022/10/22 03:28:25;;;;;;;4.77;2.90;;;11.40;99.90;;;;;;6247341;22;20238;-42
2022/10/22 03:30:51;;;;;;;8.67;3.27;;;11.40;99.90;;;;;;6247145;22;20476;-40
2022/10/22 03:33:16;;;;;;;11.37;3.50;;;11.40;99.90;;;;;;6246272;22;20151;-41
2022/10/22 03:35:45;;;;;;;4.57;3.03;;;11.30;99.90;;;;;;6246702;22;20148;-40
2022/10/22 03:38:12;;;;;;;4.07;2.97;;;11.30;99.90;;;;;;6246043;23;20274;-41
2022/10/22 03:40:38;;;;;;;5.47;2.70;;;11.30;99.90;;;;;;6246985;22;20230;-41
2022/10/22 03:43:03;;;;;;;4.00;2.80;;;11.20;99.90;;;;;;6247111;22;20667;-43
2022/10/22 03:45:29;;;;;;;7.20;2.70;;;11.20;99.90;;;;;;6246972;22;20605;-42
2022/10/22 03:47:54;;;;;;;4.77;2.90;;;11.10;99.90;;;;;;6246360;22;20189;-42
2022/10/22 03:50:20;;;;;;;5.37;2.70;;;11.10;99.90;;;;;;6246697;22;20213;-40
2022/10/22 03:52:45;;;;;;;9.53;3.23;;;11.00;99.90;;;;;;6246540;22;20267;-41
2022/10/22 03:55:11;;;;;;;4.10;2.93;;;11.00;99.90;;;;;;6246800;22;20158;-42
2022/10/22 03:57:37;;;;;;;4.63;3.03;;;10.90;99.90;;;;;;6246774;22;20185;-42
2022/10/22 04:00:04;;;;;;;6.17;2.83;;;10.90;99.90;;;;;;6244841;23;20273;-43
2022/10/22 04:02:30;;;;;;;8.30;3.00;;;10.90;99.90;;;;;;6246300;22;20158;-40
2022/10/22 04:04:55;;;;;;;4.13;2.77;;;10.80;99.90;;;;;;6246346;22;20161;-43
2022/10/22 04:07:21;;;;;;;6.17;2.93;;;10.80;99.90;;;;;;6246543;22;20221;-42
2022/10/22 04:09:46;;;;;;;6.20;2.97;;;10.80;99.90;;;;;;6246498;22;20155;-42
2022/10/22 04:12:12;;;;;;;5.63;3.20;;;10.80;99.90;;;;;;6246416;22;20163;-42
2022/10/22 04:14:37;;;;;;;5.60;3.33;;;10.80;99.90;;;;;;6246638;22;20224;-43
2022/10/22 04:17:03;;;;;;;7.47;3.47;;;10.80;99.90;;;;;;6245318;23;20200;-41
2022/10/22 04:19:29;;;;;;;6.30;3.47;;;10.70;99.90;;;;;;6246665;22;20160;-40
2022/10/22 04:21:58;;;;;;;5.53;3.20;;;10.70;99.90;;;;;;6246890;22;20452;-40
2022/10/22 04:24:23;;;;;;;6.37;3.60;;;10.70;99.90;;;;;;6246342;22;20190;-43
2022/10/22 04:26:49;;;;;;;9.27;3.90;;;10.60;99.90;;;;;;6246168;22;20152;-42
2022/10/22 04:29:15;;;;;;;11.60;3.80;;;10.60;99.90;;;;;;6246249;22;20174;-43
2022/10/22 04:31:40;;;;;;;8.67;3.97;;;10.60;99.90;;;;;;6246774;22;20489;-41
2022/10/22 04:34:06;;;;;;;8.50;3.60;;;10.60;99.90;;;;;;6244683;23;20266;-40
2022/10/22 04:36:32;;;;;;;7.53;3.67;;;10.60;99.90;;;;;;6246324;22;20159;-41
2022/10/22 04:39:00;;;;;;;9.73;3.67;;;10.60;99.90;;;;;;6246291;22;20246;-43
2022/10/22 04:41:28;;;;;;;8.07;3.87;;;10.60;99.90;;;;;;6246324;22;20163;-42
2022/10/22 04:43:55;;;;;;;7.03;4.00;;;10.60;99.90;;;;;;6246409;22;20159;-43
2022/10/22 04:46:22;;;;;;;8.83;3.93;;;10.60;99.90;;;;;;6247998;22;20238;-40
2022/10/22 04:48:49;;;;;;;5.43;3.70;;;10.60;99.90;;;;;;6246461;22;20194;-40
2022/10/22 04:51:17;;;;;;;5.83;4.17;;;10.60;99.90;;;;;;6246316;22;20155;-40
2022/10/22 04:53:43;;;;;;;8.67;4.43;;;10.60;99.90;;;;;;6246128;22;20626;-38
2022/10/22 04:56:11;;;;;;;11.50;3.90;;;10.60;99.90;;;;;;6245975;22;20171;-41
2022/10/22 04:58:37;;;;;;;7.90;4.13;;;10.60;99.90;;;;;;6245884;22;20735;-39
2022/10/22 05:01:18;;;;;;;9.07;3.90;;;10.70;99.90;;;;;;6245872;22;20640;-40
2022/10/22 05:03:44;;;;;;;10.87;4.10;;;10.70;99.90;;;;;;6246224;22;20143;-39
2022/10/22 05:06:11;;;;;;;5.83;4.00;;;10.70;99.90;;;;;;6246048;22;20602;-39
2022/10/22 05:08:37;;;;;;;10.83;3.70;;;10.80;99.90;;;;;;6246098;22;20199;-41
2022/10/22 05:11:17;;;;;;;6.77;3.40;;;10.80;99.90;;;;;;6246138;22;20152;-40
2022/10/22 05:13:43;;;;;;;4.63;3.33;;;10.80;99.90;;;;;;6245938;22;20607;-42
2022/10/22 05:16:09;;;;;;;10.23;3.50;;;10.90;99.90;;;;;;6245817;22;20212;-39
2022/10/22 05:18:36;;;;;;;9.20;3.60;;;11.00;99.90;;;;;;6245789;22;20179;-41
2022/10/22 05:21:06;;;;;;;5.27;3.50;;;11.00;99.90;;;;;;6245900;22;20166;-40
2022/10/22 05:23:32;;;;;;;10.87;3.43;;;11.10;99.90;;;;;;6245989;22;20144;-41
2022/10/22 05:26:02;;;;;;;6.77;3.63;;;11.10;99.90;;;;;;6245888;22;20209;-40
2022/10/22 05:28:27;;;;;;;4.73;3.27;;;11.10;99.90;;;;;;6245574;22;20202;-42
2022/10/22 05:30:55;;;;;;;5.93;3.30;;;11.10;99.90;;;;;;6246470;22;20164;-42
2022/10/22 05:33:21;;;;;;;6.73;3.03;;;11.10;99.90;;;;;;6245884;22;20156;-43
2022/10/22 05:35:48;;;;;;;9.50;3.23;;;11.10;99.90;;;;;;6245852;22;20433;-40
2022/10/22 05:38:14;;;;;;;6.00;3.37;;;11.10;99.90;;;;;;6245907;22;20171;-42
2022/10/22 05:40:39;;;;;;;5.70;2.57;;;11.20;99.90;;;;;;6245902;22;20496;-42
2022/10/22 05:43:05;;;;;;;8.03;2.90;;;11.20;99.90;;;;;;6244254;23;20166;-41
2022/10/22 05:45:34;;;;;;;8.87;2.80;;;11.20;99.90;;;;;;6245657;22;20233;-40
2022/10/22 05:48:00;;;;;;;4.77;2.43;;;11.30;99.90;;;;;;6245611;22;20509;-41
2022/10/22 05:50:26;;;;;;;4.60;2.63;;;11.30;99.90;;;;;;6245794;22;20152;-40
2022/10/22 05:52:52;;;;;;;5.37;2.40;;;11.30;99.90;;;;;;6245763;22;20156;-42
2022/10/22 05:55:18;;;;;;;3.40;2.50;;;11.30;99.90;;;;;;6246322;22;20223;-42
2022/10/22 05:57:43;;;;;;;4.67;2.67;;;11.30;99.90;;;;;;6247467;22;20256;-43
2022/10/22 06:00:10;;;;;;;4.67;2.40;;;11.30;99.90;;;;;;6247495;22;20155;-41
2022/10/22 06:02:35;;;;;;;9.00;2.70;;;11.30;99.90;;;;;;6247877;22;20178;-40
2022/10/22 06:05:01;;;;;;;3.57;2.33;;;11.30;99.90;;;;;;6246593;23;20162;-44
2022/10/22 06:07:27;;;;;;;5.30;2.73;;;11.30;99.90;;;;;;6246008;23;20193;-41
2022/10/22 06:09:53;;;;;;;5.83;2.13;;;11.30;99.90;;;;;;6248131;22;20202;-42
2022/10/22 06:12:19;;;;;;;6.27;2.37;;;11.30;99.90;;;;;;6247464;22;20158;-40
2022/10/22 06:14:46;;;;;;;6.70;2.20;;;11.30;99.90;;;;;;6247645;22;20155;-42
2022/10/22 06:17:12;;;;;;;4.13;2.27;;;11.30;99.90;;;;;;6247422;22;20172;-40
2022/10/22 06:19:38;;;;;;;8.17;2.50;;;11.40;99.90;;;;;;6245872;23;20163;-42
2022/10/22 06:22:04;;;;;;;4.10;1.97;;;11.50;99.90;;;;;;6247728;22;20238;-43
2022/10/22 06:24:31;;;;;;;8.20;1.97;;;11.60;99.90;;;;;;6248333;22;20180;-43
2022/10/22 06:26:57;;;;;;;7.13;2.20;;;11.70;99.90;;;;;;6245519;23;20183;-43
2022/10/22 06:29:22;;;;;;;6.90;2.50;;;11.70;99.90;;;;;;6247220;22;20172;-40
2022/10/22 06:31:48;;;;;;;6.77;2.17;;;11.70;99.90;;;;;;6248007;22;20226;-40
2022/10/22 06:34:17;;;;;;;3.60;1.80;;;11.70;99.90;;;;;;6247333;22;20154;-41
2022/10/22 06:36:44;;;;;;;7.77;2.20;;;11.70;99.90;;;;;;6245611;23;20234;-41
2022/10/22 06:39:11;;;;;;;5.00;1.80;;;11.80;99.90;;;;;;6247329;22;20489;-40
2022/10/22 06:41:37;;;;;;;8.53;2.13;;;11.80;99.90;;;;;;6247713;22;20193;-45
2022/10/22 06:44:03;;;;;;;9.33;2.30;;;11.90;99.90;;;;;;6245584;23;20605;-44
2022/10/22 06:46:30;;;;;;;8.90;2.30;;;11.90;99.90;;;;;;6247128;22;20159;-45
2022/10/22 06:48:59;;;;;;;4.40;1.83;;;12.00;99.90;;;;;;6245330;23;20205;-46
2022/10/22 06:51:25;;;;;;;7.20;2.40;;;12.10;99.90;;;;;;6247203;22;20180;-44
2022/10/22 06:53:52;;;;;;;10.30;2.40;;;12.10;99.90;;;;;;6247435;22;20520;-43
2022/10/22 06:56:20;;;;;;;5.93;2.20;;;12.20;99.90;;;;;;6247031;22;20609;-43
2022/10/22 06:58:50;;;;;;;8.77;2.13;;;12.20;99.90;;;;;;6247059;22;20182;-45
2022/10/22 07:01:18;;;;;;;7.50;2.50;;;12.30;99.90;;;;;;6247348;22;20159;-45
2022/10/22 07:03:44;;;;;;;8.53;1.97;;;12.20;99.90;;;;;;6247297;22;20159;-45
2022/10/22 07:06:13;;;;;;;8.93;2.27;;;12.30;99.90;;;;;;6247418;22;20158;-45
2022/10/22 07:08:40;;;;;;;8.30;2.40;;;12.40;99.90;;;;;;6246594;22;20187;-46
2022/10/22 07:11:12;;;;;;;10.13;2.27;;;12.40;99.90;;;;;;6248067;22;20147;-45
2022/10/22 07:13:38;;;;;;;7.70;2.23;;;12.40;99.90;;;;;;6250378;22;20151;-45
2022/10/22 07:16:05;;;;;;;5.63;2.20;;;12.50;99.90;;;;;;6249723;22;20156;-46
2022/10/22 07:18:31;;;;;;;12.23;2.30;;;12.50;99.90;;;;;;6250204;22;20175;-46
2022/10/22 07:20:57;;;;;;;13.03;2.33;;;12.50;99.90;;;;;;6250016;22;20156;-46
2022/10/22 07:23:22;;;;;;;6.67;2.40;;;12.50;99.90;;;;;;6250542;22;20159;-46
2022/10/22 07:25:48;;;;;;;12.27;2.77;;;12.50;99.90;;;;;;6250254;22;20166;-46
2022/10/22 07:28:13;;;;;;;8.10;1.97;;;12.60;99.90;;;;;;6249691;22;20179;-45
2022/10/22 07:30:39;;;;;;;5.83;1.97;;;12.60;99.90;;;;;;6249719;22;20633;-46
2022/10/22 07:33:05;;;;;;;9.33;2.00;;;12.80;99.90;;;;;;6249806;22;20152;-45
2022/10/22 07:35:31;;;;;;;8.77;2.60;;;12.90;99.90;;;;;;6250110;22;20519;-45
2022/10/22 07:37:56;;;;;;;12.57;2.07;;;13.10;99.90;;;;;;6249787;22;20202;-44
2022/10/22 07:40:22;;;;;;;10.03;2.00;;;13.10;99.90;;;;;;6248725;23;20159;-45
2022/10/22 07:42:47;;;;;;;11.07;2.50;;;13.30;99.90;;;;;;6250059;22;20186;-47
2022/10/22 07:45:13;;;;;;;5.67;1.80;;;13.40;99.90;;;;;;6250115;22;20182;-46
2022/10/22 07:47:39;;;;;;;5.33;1.53;;;13.50;99.90;;;;;;6249419;22;20253;-47
2022/10/22 07:50:06;;;;;;;9.93;1.90;;;13.60;99.90;;;;;;6249482;23;20155;-46
2022/10/22 07:52:32;;;;;;;13.70;2.90;;;13.70;99.90;;;;;;6250242;22;20158;-45
2022/10/22 07:54:57;;;;;;;5.73;1.80;;;13.70;99.90;;;;;;6250602;22;20152;-45
2022/10/22 07:57:23;;;;;;;8.27;1.93;;;13.80;99.90;;;;;;6250993;22;20176;-47
2022/10/22 07:59:48;;;;;;;7.50;2.00;;;13.90;99.90;;;;;;6250689;22;20163;-46
2022/10/22 08:02:14;;;;;;;14.97;2.17;;;14.00;99.90;;;;;;6253014;22;20162;-46
2022/10/22 08:04:39;;;;;;;10.93;2.40;;;14.00;99.90;;;;;;6250939;22;20166;-47
2022/10/22 08:07:05;;;;;;;7.03;1.87;;;14.00;99.90;;;;;;6250211;22;20229;-46
2022/10/22 08:09:30;;;;;;;10.67;1.87;;;14.10;99.90;;;;;;6250197;22;20179;-47
2022/10/22 08:11:56;;;;;;;7.60;2.10;;;14.10;99.90;;;;;;6250154;22;20174;-45
2022/10/22 08:14:22;;;;;;;7.10;1.63;;;14.20;99.90;;;;;;6248418;23;20156;-45
2022/10/22 08:16:47;;;;;;;9.60;1.80;;;14.20;99.90;;;;;;6250957;22;20159;-44
2022/10/22 08:19:17;;;;;;;8.90;2.07;;;14.30;99.90;;;;;;6250153;22;20231;-46
2022/10/22 08:21:44;;;;;;;7.07;1.90;;;14.30;99.90;;;;;;6250504;22;20155;-47
2022/10/22 08:24:10;;;;;;;6.83;1.87;;;14.40;99.90;;;;;;6250111;22;20156;-45
2022/10/22 08:26:36;;;;;;;9.20;1.90;;;14.50;99.90;;;;;;6249185;22;20602;-45
2022/10/22 08:29:02;;;;;;;5.97;1.80;;;14.50;99.90;;;;;;6248580;23;20192;-45
2022/10/22 08:31:27;;;;;;;5.83;1.67;;;14.60;99.90;;;;;;6249067;22;20165;-46
2022/10/22 08:33:53;;;;;;;4.10;1.60;;;14.60;99.90;;;;;;6249013;22;20158;-47
2022/10/22 08:36:18;;;;;;;9.13;1.90;;;14.80;99.90;;;;;;6249182;22;20155;-45
2022/10/22 08:38:44;;;;;;;3.37;1.37;;;14.90;99.90;;;;;;6248872;22;20198;-44
2022/10/22 08:41:19;;;;;;;11.50;2.10;;;15.00;99.90;;;;;;6248877;22;20151;-45
2022/10/22 08:44:21;;;;;;;5.70;1.90;;;15.00;99.90;;;;;;6249124;22;20144;-46
2022/10/22 08:47:01;;;;;;;7.63;1.80;;;15.10;99.90;;;;;;6249410;22;20155;-46
2022/10/22 08:49:32;;;;;;;6.77;1.53;;;15.20;99.90;;;;;;6249079;22;20470;-44
2022/10/22 08:51:59;;;;;;;6.33;1.87;;;15.20;99.90;;;;;;6249120;22;20160;-46
2022/10/22 08:54:32;;;;;;;7.83;1.40;;;15.20;99.90;;;;;;6248739;22;20154;-45
2022/10/22 08:57:27;;;;;;;8.70;1.63;;;15.30;99.90;;;;;;6248327;22;20222;-47
2022/10/22 09:00:27;;;;;;;5.37;1.30;;;15.30;99.90;;;;;;6249317;22;20144;-46
2022/10/22 09:03:13;;;;;;;5.53;1.50;;;15.40;99.90;;;;;;6248897;22;20538;-46
2022/10/22 09:06:00;;;;;;;4.87;1.40;;;15.40;99.90;;;;;;6248355;22;20194;-47
2022/10/22 09:08:25;;;;;;;4.00;1.30;;;15.40;99.90;;;;;;6248333;22;20207;-47
2022/10/22 09:10:57;;;;;;;8.47;1.40;;;15.40;99.90;;;;;;6248938;22;20148;-48
2022/10/22 09:13:23;;;;;;;3.77;1.07;;;15.50;99.90;;;;;;6248478;22;20136;-46
2022/10/22 09:15:56;;;;;;;9.50;1.50;;;15.50;99.90;;;;;;6248528;22;20183;-46
2022/10/22 09:18:40;;;;;;;5.60;1.30;;;15.50;99.90;;;;;;6248435;22;20175;-45
2022/10/22 09:21:15;;;;;;;8.10;1.50;;;15.60;99.90;;;;;;6247003;22;20151;-49
2022/10/22 09:23:54;;;;;;;8.40;1.40;;;15.50;99.90;;;;;;6247636;22;20163;-48
2022/10/22 09:26:19;;;;;;;8.33;1.50;;;15.70;99.90;;;;;;6247164;22;20175;-49
2022/10/22 09:28:49;;;;;;;4.87;1.40;;;15.70;99.90;;;;;;6246407;22;20249;-49
2022/10/22 09:31:15;;;;;;;4.17;1.30;;;15.70;99.90;;;;;;6247672;22;20188;-47
2022/10/22 09:33:43;;;;;;;3.37;1.40;;;15.80;99.90;;;;;;6249248;22;20175;-47
2022/10/22 09:36:15;;;;;;;5.80;1.33;;;15.80;99.90;;;;;;6249414;22;20490;-46
2022/10/22 09:38:46;;;;;;;4.17;1.30;;;15.80;99.90;;;;;;6249200;22;20175;-47
2022/10/22 09:41:12;;;;;;;7.90;1.77;;;15.80;99.90;;;;;;6248965;22;20201;-46
2022/10/22 09:43:38;;;;;;;3.07;1.20;;;15.90;99.90;;;;;;6248766;22;20290;-47
2022/10/22 09:46:07;;;;;;;8.53;1.60;;;16.00;99.90;;;;;;6246651;23;20179;-40
2022/10/22 09:48:36;;;;;;;6.60;1.40;;;16.00;99.90;;;;;;6247866;22;20218;-47
2022/10/22 09:51:10;;;;;;;7.60;1.60;;;16.00;99.90;;;;;;6247901;22;20183;-45
2022/10/22 09:53:41;;;;;;;5.37;1.57;;;16.00;99.90;;;;;;6247976;22;20186;-48
2022/10/22 09:56:15;;;;;;;5.00;1.20;;;16.10;99.90;;;;;;6247933;22;20490;-45
2022/10/22 09:58:43;;;;;;;7.77;1.17;;;16.10;99.90;;;;;;6247886;22;20214;-46
2022/10/22 10:01:16;;;;;;;6.73;1.60;;;16.20;99.90;;;;;;6247635;22;20318;-46
2022/10/22 10:03:42;;;;;;;4.73;1.60;;;16.20;99.90;;;;;;6248033;22;20449;-48
2022/10/22 10:06:07;;;;;;;5.03;1.37;;;16.20;99.90;;;;;;6248499;22;20166;-45
2022/10/22 10:08:33;;;;;;;2.77;1.30;;;16.20;99.90;;;;;;6247758;22;20187;-46
2022/10/22 10:11:05;;;;;;;5.97;1.23;;;16.20;99.90;;;;;;6246045;23;20213;-48
2022/10/22 10:13:37;;;;;;;4.73;1.20;;;16.30;99.90;;;;;;6247854;22;20193;-47
2022/10/22 10:16:38;;;;;;;5.30;1.33;;;16.40;99.90;;;;;;6248432;22;20187;-45
2022/10/22 10:19:29;;;;;;;4.17;1.20;;;16.30;99.90;;;;;;6229724;23;20155;-46
2022/10/22 10:22:13;;;;;;;4.63;1.20;;;16.40;99.90;;;;;;6247388;22;20148;-46
2022/10/22 10:24:57;;;;;;;4.83;1.00;;;16.40;99.90;;;;;;6247828;22;20163;-45
2022/10/22 10:27:43;;;;;;;7.60;1.57;;;16.40;99.90;;;;;;6247161;23;20255;-46
2022/10/22 10:30:16;;;;;;;8.50;1.30;;;16.50;99.90;;;;;;6247110;22;20621;-45
2022/10/22 10:33:03;;;;;;;3.67;1.00;;;16.50;99.90;;;;;;6247240;22;20151;-47
2022/10/22 10:35:57;;;;;;;2.53;1.10;;;16.50;99.90;;;;;;6247501;22;20569;-47
2022/10/22 10:38:34;;;;;;;6.50;1.70;;;16.60;99.90;;;;;;6247479;22;20179;-47
2022/10/22 10:41:17;;;;;;;2.13;1.00;;;16.60;99.90;;;;;;6247653;22;20170;-47
2022/10/22 10:44:20;;;;;;;4.37;1.00;;;16.60;99.90;;;;;;6247370;22;20140;-46
2022/10/22 10:47:07;;;;;;;4.63;0.97;;;16.60;99.90;;;;;;6247296;23;20147;-47
2022/10/22 10:49:35;;;;;;;5.43;1.20;;;16.70;99.90;;;;;;6247082;22;20198;-46
2022/10/22 10:52:24;;;;;;;4.30;1.10;;;16.70;99.90;;;;;;6247068;22;20155;-47
2022/10/22 10:55:02;;;;;;;4.30;1.13;;;16.80;99.90;;;;;;6247268;22;20148;-47
2022/10/22 10:57:39;;;;;;;7.57;1.50;;;16.80;99.90;;;;;;6247539;22;20254;-49
2022/10/22 11:00:16;;;;;;;7.10;1.47;;;16.80;99.90;;;;;;6247461;22;20150;-45
2022/10/22 11:02:59;;;;;;;5.50;1.00;;;16.80;99.90;;;;;;6247507;22;20190;-48
2022/10/22 11:05:36;;;;;;;3.97;1.20;;;16.90;99.90;;;;;;6247151;22;20136;-46
2022/10/22 11:08:26;;;;;;;5.40;0.93;;;16.80;99.90;;;;;;6247195;22;20218;-47
2022/10/22 11:11:05;;;;;;;6.50;0.90;;;16.90;99.90;;;;;;6248173;22;20140;-47
2022/10/22 11:13:39;;;;;;;4.57;0.93;;;16.90;99.90;;;;;;6247250;22;20190;-47
2022/10/22 11:16:11;;;;;;;5.00;0.83;;;17.00;99.90;;;;;;6245359;23;20201;-45
2022/10/22 11:18:47;;;;;;;3.07;0.90;;;17.00;99.90;;;;;;6247033;22;20241;-45
2022/10/22 11:21:46;;;;;;;3.23;0.83;;;17.00;99.90;;;;;;6247096;23;20158;-46
2022/10/22 11:24:20;;;;;;;5.17;1.13;;;17.00;99.90;;;;;;6247159;22;20182;-46
2022/10/22 11:27:03;;;;;;;2.17;0.73;;;17.10;99.90;;;;;;6246786;22;20218;-47
2022/10/22 11:29:39;;;;;;;2.17;0.70;;;17.10;99.90;;;;;;6246685;22;20167;-48
2022/10/22 11:32:09;;;;;;;2.73;0.97;;;17.10;99.90;;;;;;6245309;23;20605;-47
2022/10/22 11:34:47;;;;;;;7.67;1.10;;;17.10;99.90;;;;;;6246775;22;20160;-48
2022/10/22 11:37:13;;;;;;;6.03;1.20;;;17.20;99.90;;;;;;6246547;22;20175;-49
2022/10/22 11:39:54;;;;;;;9.30;1.10;;;17.20;99.90;;;;;;6246891;22;20143;-47
2022/10/22 11:42:21;;;;;;;5.77;1.33;;;17.20;99.90;;;;;;6246585;22;20152;-47
2022/10/22 11:44:48;;;;;;;6.50;0.80;;;17.30;99.90;;;;;;6246866;22;20152;-48
2022/10/22 11:47:24;;;;;;;6.90;1.13;;;17.40;99.90;;;;;;6246635;22;20507;-48
2022/10/22 11:50:14;;;;;;;3.37;1.00;;;17.50;99.90;;;;;;6246885;22;20626;-46
2022/10/22 11:52:47;;;;;;;3.27;0.90;;;17.50;99.90;;;;;;6246878;22;20225;-47
2022/10/22 11:55:32;;;;;;;3.10;1.30;;;17.60;99.90;;;;;;6246409;22;20144;-46
2022/10/22 11:58:00;;;;;;;3.77;1.00;;;17.70;99.90;;;;;;6246969;22;20175;-47
2022/10/22 12:00:39;;;;;;;4.73;1.00;;;17.70;99.90;;;;;;6246810;22;20167;-46
2022/10/22 12:03:17;;;;;;;8.57;1.23;;;17.70;99.90;;;;;;6246736;22;20146;-48
2022/10/22 12:05:45;;;;;;;3.30;0.93;;;17.80;99.90;;;;;;6246764;22;20164;-48
2022/10/22 12:08:23;;;;;;;5.77;1.23;;;17.90;99.90;;;;;;6246071;22;20517;-48
2022/10/22 12:11:01;;;;;;;4.40;1.47;;;17.90;99.90;;;;;;6246725;22;20159;-48
2022/10/22 12:13:31;;;;;;;8.73;1.23;;;17.90;99.90;;;;;;6246391;22;20213;-48
2022/10/22 12:16:01;;;;;;;2.47;1.00;;;18.00;99.90;;;;;;6246313;22;20152;-45
2022/10/22 12:18:33;;;;;;;6.33;1.23;;;18.00;99.90;;;;;;6246360;22;20544;-46
2022/10/22 12:20:58;;;;;;;3.10;1.07;;;18.10;99.90;;;;;;6245497;23;20210;-46
2022/10/22 12:23:30;;;;;;;3.10;1.07;;;18.20;99.90;;;;;;6246176;22;20167;-49
2022/10/22 12:25:57;;;;;;;4.07;1.00;;;18.20;99.90;;;;;;6246086;22;20152;-47
2022/10/22 12:28:22;;;;;;;3.53;0.80;;;18.30;99.90;;;;;;6244256;23;20198;-48
2022/10/22 12:30:48;;;;;;;3.20;0.70;;;18.40;99.90;;;;;;6246620;22;20154;-49
2022/10/22 12:33:21;;;;;;;1.70;0.80;;;18.50;99.90;;;;;;6244505;23;20487;-47
2022/10/22 12:35:50;;;;;;;2.97;0.90;;;18.50;99.90;;;;;;6246183;22;20148;-48
2022/10/22 12:38:21;;;;;;;4.30;1.00;;;18.50;99.90;;;;;;6246010;22;20171;-48
2022/10/22 12:40:49;;;;;;;6.53;1.40;;;18.50;99.90;;;;;;6246134;22;20286;-45
2022/10/22 12:43:23;;;;;;;5.27;1.07;;;18.60;99.90;;;;;;6246870;22;20570;-47
2022/10/22 12:45:50;;;;;;;2.57;0.77;;;18.60;99.90;;;;;;6246402;22;20158;-47
2022/10/22 12:48:27;;;;;;;2.73;0.90;;;18.70;99.90;;;;;;6246197;22;20245;-49
2022/10/22 12:50:55;;;;;;;3.47;1.60;;;18.70;99.90;;;;;;6246496;22;20164;-47
2022/10/22 12:53:31;;;;;;;4.37;1.27;;;18.70;99.90;;;;;;6246467;22;20151;-47
2022/10/22 12:56:02;;;;;;;2.90;0.83;;;18.80;99.90;;;;;;6246497;22;20229;-46
2022/10/22 12:58:32;;;;;;;3.03;1.13;;;18.90;99.90;;;;;;6246402;22;20565;-46
2022/10/22 13:01:02;;;;;;;2.43;0.77;;;18.90;99.90;;;;;;6246809;22;20558;-45
2022/10/22 13:03:32;;;;;;;4.27;0.80;;;19.00;99.90;;;;;;6246026;22;20155;-47